Time,TemperatureF,DewpointF,PressureIn,WindDirection,WindDirectionDegrees,WindSpeedMPH,WindSpeedGustMPH,Humidity,HourlyPrecipIn,Conditions,Clouds,dailyrainin,SoftwareType,DateUTC
2013-07-04 00:02:00,79.0,73.0,30.21,SSW,207,0.0,0.0,83,0.00,,,0.05,,2013-07-04 04:02:00,
2013-07-04 00:11:00,79.0,73.0,30.21,SSW,195,3.0,3.0,83,0.00,,,0.05,,2013-07-04 04:11:00,
2013-07-04 00:22:00,79.0,73.0,30.21,SSW,203,1.0,3.0,83,0.00,,,0.05,,2013-07-04 04:22:00,
2013-07-04 00:33:00,79.0,73.0,30.21,SW,227,3.0,3.0,83,0.00,,,0.05,,2013-07-04 04:33:00,
2013-07-04 00:43:00,79.0,73.0,30.21,SW,228,2.0,3.0,83,0.00,,,0.05,,2013-07-04 04:43:00,
2013-07-04 00:52:00,79.0,73.0,30.21,SW,228,2.0,3.0,83,0.00,,,0.05,,2013-07-04 04:52:00,
2013-07-04 01:02:00,79.0,73.0,30.21,SW,228,2.0,3.0,83,0.00,,,0.05,,2013-07-04 05:02:00,
2013-07-04 01:12:00,79.0,73.0,30.21,SW,228,2.0,3.0,83,0.00,,,0.05,,2013-07-04 05:12:00,
2013-07-04 01:22:00,79.0,73.0,30.21,SW,228,2.0,3.0,83,0.00,,,0.05,,2013-07-04 05:22:00,
2013-07-04 01:33:00,79.0,74.0,30.21,SW,231,6.0,6.0,85,0.00,,,0.05,,2013-07-04 05:33:00,
2013-07-04 01:43:00,79.0,74.0,30.21,SW,223,3.0,3.0,85,0.00,,,0.05,,2013-07-04 05:43:00,
2013-07-04 01:52:00,79.0,74.0,30.20,SW,219,0.0,2.0,85,0.00,,,0.05,,2013-07-04 05:52:00,
2013-07-04 02:01:00,79.0,74.0,30.20,SW,219,0.0,2.0,85,0.00,,,0.05,,2013-07-04 06:01:00,
2013-07-04 02:11:00,78.0,73.0,30.20,SW,231,2.0,4.0,86,0.00,,,0.05,,2013-07-04 06:11:00,
2013-07-04 02:22:00,78.0,73.0,30.20,WSW,253,2.0,3.0,86,0.00,,,0.05,,2013-07-04 06:22:00,
2013-07-04 02:34:00,78.0,73.0,30.20,SW,233,6.0,6.0,86,0.00,,,0.05,,2013-07-04 06:34:00,
2013-07-04 02:43:00,78.0,73.0,30.20,SW,233,6.0,6.0,86,0.00,,,0.05,,2013-07-04 06:43:00,
2013-07-04 02:53:00,78.0,73.0,30.20,SW,233,6.0,6.0,86,0.00,,,0.05,,2013-07-04 06:53:00,
2013-07-04 03:02:00,78.0,74.0,30.20,SW,224,3.0,5.0,87,0.00,,,0.05,,2013-07-04 07:02:00,
2013-07-04 03:12:00,78.0,74.0,30.20,SW,224,3.0,5.0,87,0.00,,,0.05,,2013-07-04 07:12:00,
2013-07-04 03:22:00,78.0,74.0,30.20,SW,224,3.0,5.0,87,0.00,,,0.05,,2013-07-04 07:22:00,
2013-07-04 03:43:00,77.0,73.0,30.19,SW,230,1.0,3.0,88,0.00,,,0.05,,2013-07-04 07:43:00,
2013-07-04 03:52:00,77.0,73.0,30.19,South,188,0.0,3.0,88,0.00,,,0.05,,2013-07-04 07:52:00,
2013-07-04 04:02:00,77.0,73.0,30.19,SW,224,2.0,3.0,88,0.00,,,0.05,,2013-07-04 08:02:00,
2013-07-04 04:11:00,77.0,73.0,30.19,SW,227,6.0,10.0,88,0.00,,,0.05,,2013-07-04 08:11:00,
2013-07-04 04:22:00,77.0,73.0,30.19,SSW,210,1.0,3.0,88,0.00,,,0.05,,2013-07-04 08:22:00,
2013-07-04 04:33:00,77.0,73.0,30.19,SSW,210,1.0,3.0,88,0.00,,,0.05,,2013-07-04 08:33:00,
2013-07-04 04:42:00,77.0,73.0,30.19,SW,217,2.0,4.0,88,0.00,,,0.05,,2013-07-04 08:42:00,
2013-07-04 04:53:00,77.0,73.0,30.19,SW,217,2.0,4.0,88,0.00,,,0.05,,2013-07-04 08:53:00,
2013-07-04 05:02:00,77.0,73.0,30.19,SW,217,2.0,4.0,88,0.00,,,0.05,,2013-07-04 09:02:00,
2013-07-04 05:11:00,77.0,73.0,30.20,SSW,212,2.0,3.0,88,0.00,,,0.05,,2013-07-04 09:11:00,
2013-07-04 05:22:00,77.0,73.0,30.20,SW,226,3.0,10.0,88,0.00,,,0.05,,2013-07-04 09:22:00,
2013-07-04 05:33:00,77.0,73.0,30.20,SSW,196,3.0,9.0,88,0.00,,,0.05,,2013-07-04 09:33:00,
2013-07-04 05:42:00,77.0,73.0,30.20,SSW,196,3.0,9.0,88,0.00,,,0.05,,2013-07-04 09:42:00,
2013-07-04 05:52:00,77.0,73.0,30.21,SW,215,3.0,3.0,88,0.00,,,0.05,,2013-07-04 09:52:00,
2013-07-04 06:01:00,77.0,73.0,30.21,SSW,201,0.0,2.0,88,0.00,,,0.05,,2013-07-04 10:01:00,
2013-07-04 06:11:00,77.0,73.0,30.21,SSW,201,0.0,2.0,88,0.00,,,0.05,,2013-07-04 10:11:00,
2013-07-04 06:22:00,77.0,73.0,30.21,SW,226,1.0,3.0,88,0.00,,,0.05,,2013-07-04 10:22:00,
2013-07-04 06:34:00,77.0,73.0,30.21,SW,226,1.0,3.0,88,0.00,,,0.05,,2013-07-04 10:34:00,
2013-07-04 06:43:00,77.0,73.0,30.21,SW,227,1.0,3.0,87,0.00,,,0.05,,2013-07-04 10:43:00,
2013-07-04 06:53:00,77.0,72.0,30.22,SW,219,6.0,6.0,86,0.00,,,0.05,,2013-07-04 10:53:00,
2013-07-04 07:02:00,77.0,72.0,30.22,SW,219,6.0,6.0,86,0.00,,,0.05,,2013-07-04 11:02:00,
2013-07-04 07:12:00,77.0,72.0,30.22,SW,231,3.0,3.0,86,0.00,,,0.05,,2013-07-04 11:12:00,
2013-07-04 07:22:00,77.0,72.0,30.22,SW,231,3.0,3.0,86,0.00,,,0.05,,2013-07-04 11:22:00,
2013-07-04 07:34:00,78.0,73.0,30.22,SSW,198,3.0,7.0,85,0.00,,,0.05,,2013-07-04 11:34:00,
2013-07-04 07:43:00,78.0,73.0,30.22,SW,218,2.0,3.0,85,0.00,,,0.05,,2013-07-04 11:43:00,
2013-07-04 07:53:00,78.0,73.0,30.22,SW,236,5.0,10.0,84,0.00,,,0.05,,2013-07-04 11:53:00,
2013-07-04 08:12:00,78.0,72.0,30.22,SW,220,6.0,9.0,83,0.00,,,0.05,,2013-07-04 12:12:00,
2013-07-04 08:22:00,78.0,72.0,30.23,SW,224,2.0,8.0,81,0.00,,,0.05,,2013-07-04 12:22:00,
2013-07-04 08:33:00,79.0,73.0,30.23,SSW,196,2.0,4.0,81,0.00,,,0.05,,2013-07-04 12:33:00,
2013-07-04 08:43:00,79.0,72.0,30.23,SW,228,3.0,5.0,79,0.00,,,0.05,,2013-07-04 12:43:00,
2013-07-04 08:52:00,80.0,72.0,30.23,SW,232,6.0,6.0,78,0.00,,,0.05,,2013-07-04 12:52:00,
2013-07-04 09:12:00,81.0,72.0,30.23,SSW,205,7.0,9.0,75,0.00,,,0.05,,2013-07-04 13:12:00,
2013-07-04 09:23:00,81.0,72.0,30.23,SW,234,3.0,7.0,75,0.00,,,0.05,,2013-07-04 13:23:00,
2013-07-04 09:33:00,81.0,72.0,30.23,WSW,250,2.0,4.0,74,0.00,,,0.05,,2013-07-04 13:33:00,
2013-07-04 09:43:00,82.0,72.0,30.23,WNW,293,5.0,5.0,72,0.00,,,0.05,,2013-07-04 13:43:00,
2013-07-04 10:02:00,82.0,72.0,30.23,SW,233,4.0,8.0,71,0.00,,,0.05,,2013-07-04 14:02:00,
2013-07-04 10:12:00,82.0,71.0,30.23,WNW,295,4.0,5.0,70,0.00,,,0.05,,2013-07-04 14:12:00,
2013-07-04 10:22:00,82.0,72.0,30.22,WSW,256,3.0,4.0,71,0.00,,,0.05,,2013-07-04 14:22:00,
2013-07-04 10:33:00,83.0,73.0,30.22,West,259,3.0,3.0,71,0.00,,,0.05,,2013-07-04 14:33:00,
2013-07-04 10:43:00,83.0,73.0,30.22,West,259,3.0,3.0,71,0.00,,,0.05,,2013-07-04 14:43:00,
2013-07-04 10:53:00,84.0,72.0,30.22,WNW,289,2.0,3.0,67,0.00,,,0.05,,2013-07-04 14:53:00,
2013-07-04 11:02:00,85.0,72.0,30.22,SSW,206,4.0,5.0,65,0.00,,,0.05,,2013-07-04 15:02:00,
2013-07-04 11:11:00,84.0,71.0,30.22,WNW,285,3.0,7.0,66,0.00,,,0.05,,2013-07-04 15:11:00,
2013-07-04 11:23:00,84.0,71.0,30.22,WNW,285,3.0,7.0,66,0.00,,,0.05,,2013-07-04 15:23:00,
2013-07-04 11:33:00,85.0,71.0,30.22,WNW,295,4.0,8.0,64,0.00,,,0.05,,2013-07-04 15:33:00,
2013-07-04 11:43:00,85.0,71.0,30.22,WNW,285,3.0,4.0,63,0.00,,,0.05,,2013-07-04 15:43:00,
2013-07-04 11:52:00,85.0,71.0,30.22,WNW,285,3.0,4.0,63,0.00,,,0.05,,2013-07-04 15:52:00,
2013-07-04 12:02:00,85.0,71.0,30.22,WNW,285,3.0,4.0,63,0.00,,,0.05,,2013-07-04 16:02:00,
2013-07-04 12:11:00,87.0,70.0,30.21,SW,214,2.0,7.0,57,0.00,,,0.05,,2013-07-04 16:11:00,
2013-07-04 12:22:00,87.0,70.0,30.21,WNW,290,2.0,5.0,57,0.00,,,0.05,,2013-07-04 16:22:00,
2013-07-04 12:33:00,88.0,70.0,30.21,WSW,257,6.0,8.0,55,0.00,,,0.05,,2013-07-04 16:33:00,
2013-07-04 12:43:00,88.0,70.0,30.21,WSW,257,6.0,8.0,55,0.00,,,0.05,,2013-07-04 16:43:00,
2013-07-04 12:52:00,88.0,70.0,30.21,WSW,257,6.0,8.0,55,0.00,,,0.05,,2013-07-04 16:52:00,
2013-07-04 13:02:00,88.0,70.0,30.21,WSW,257,6.0,8.0,55,0.00,,,0.05,,2013-07-04 17:02:00,
2013-07-04 13:12:00,88.0,70.0,30.21,WSW,257,6.0,8.0,55,0.00,,,0.05,,2013-07-04 17:12:00,
2013-07-04 13:22:00,90.0,72.0,30.20,WSW,242,4.0,4.0,55,0.00,,,0.05,,2013-07-04 17:22:00,
2013-07-04 13:34:00,90.0,72.0,30.20,WSW,242,4.0,4.0,55,0.00,,,0.05,,2013-07-04 17:34:00,
2013-07-04 13:43:00,90.0,72.0,30.20,WSW,242,4.0,4.0,55,0.00,,,0.05,,2013-07-04 17:43:00,
2013-07-04 13:53:00,90.0,72.0,30.20,WSW,242,4.0,4.0,55,0.00,,,0.05,,2013-07-04 17:53:00,
2013-07-04 14:01:00,90.0,72.0,30.20,WSW,242,4.0,4.0,55,0.00,,,0.05,,2013-07-04 18:01:00,
2013-07-04 14:43:00,88.0,70.0,30.19,West,273,5.0,9.0,56,0.00,,,0.01,,2013-07-04 18:43:00,
2013-07-04 14:52:00,89.0,71.0,30.19,SSW,200,5.0,10.0,55,0.00,,,0.01,,2013-07-04 18:52:00,
2013-07-04 15:02:00,89.0,70.0,30.19,South,171,3.0,10.0,54,0.00,,,0.01,,2013-07-04 19:02:00,
2013-07-04 15:12:00,89.0,70.0,30.19,South,171,3.0,10.0,54,0.00,,,0.01,,2013-07-04 19:12:00,
2013-07-04 15:22:00,90.0,70.0,30.18,SW,221,4.0,8.0,52,0.00,,,0.01,,2013-07-04 19:22:00,
2013-07-04 15:33:00,89.0,70.0,30.18,West,271,6.0,10.0,54,0.00,,,0.01,,2013-07-04 19:33:00,
2013-07-04 15:43:00,90.0,70.0,30.17,WSW,250,2.0,5.0,52,0.00,,,0.01,,2013-07-04 19:43:00,
2013-07-04 15:53:00,90.0,70.0,30.16,WSW,243,5.0,10.0,52,0.00,,,0.01,,2013-07-04 19:53:00,
2013-07-04 16:02:00,90.0,70.0,30.16,WSW,243,5.0,10.0,52,0.00,,,0.01,,2013-07-04 20:02:00,
2013-07-04 16:11:00,90.0,69.0,30.16,SW,221,3.0,9.0,51,0.00,,,0.01,,2013-07-04 20:11:00,
2013-07-04 16:22:00,90.0,69.0,30.15,South,191,8.0,10.0,51,0.00,,,0.01,,2013-07-04 20:22:00,
2013-07-04 16:34:00,91.0,69.0,30.15,WSW,257,3.0,5.0,49,0.00,,,0.01,,2013-07-04 20:34:00,
2013-07-04 16:42:00,91.0,69.0,30.15,WSW,257,3.0,5.0,49,0.00,,,0.01,,2013-07-04 20:42:00,
2013-07-04 16:53:00,91.0,69.0,30.15,WSW,257,3.0,5.0,49,0.00,,,0.01,,2013-07-04 20:53:00,
2013-07-04 17:01:00,91.0,69.0,30.15,WSW,257,3.0,5.0,49,0.00,,,0.01,,2013-07-04 21:01:00,
2013-07-04 17:12:00,91.0,69.0,30.15,WSW,257,3.0,5.0,49,0.00,,,0.01,,2013-07-04 21:12:00,
2013-07-04 17:22:00,90.0,69.0,30.15,WSW,240,3.0,9.0,50,0.00,,,0.01,,2013-07-04 21:22:00,
2013-07-04 17:32:00,90.0,69.0,30.15,WNW,287,16.0,16.0,50,0.00,,,0.01,,2013-07-04 21:32:00,
2013-07-04 17:43:00,90.0,69.0,30.15,West,259,3.0,8.0,51,0.00,,,0.01,,2013-07-04 21:43:00,
2013-07-04 17:53:00,90.0,69.0,30.15,SW,231,10.0,10.0,50,0.00,,,0.01,,2013-07-04 21:53:00,
2013-07-04 18:02:00,90.0,69.0,30.15,SW,231,10.0,10.0,50,0.00,,,0.01,,2013-07-04 22:02:00,
2013-07-04 18:12:00,90.0,69.0,30.14,WSW,238,2.0,8.0,51,0.00,,,0.01,,2013-07-04 22:12:00,
2013-07-04 18:22:00,90.0,69.0,30.14,WSW,238,2.0,8.0,51,0.00,,,0.01,,2013-07-04 22:22:00,
2013-07-04 18:33:00,90.0,69.0,30.14,SW,228,5.0,13.0,51,0.00,,,0.01,,2013-07-04 22:33:00,
2013-07-04 18:43:00,90.0,69.0,30.14,SW,228,5.0,13.0,51,0.00,,,0.01,,2013-07-04 22:43:00,
2013-07-04 18:52:00,89.0,68.0,30.15,West,259,3.0,12.0,51,0.00,,,0.00,,2013-07-04 22:52:00,
2013-07-04 19:02:00,89.0,68.0,30.15,West,259,3.0,12.0,51,0.00,,,0.00,,2013-07-04 23:02:00,
2013-07-04 19:12:00,88.0,68.0,30.15,SW,218,5.0,10.0,52,0.00,,,0.00,,2013-07-04 23:12:00,
2013-07-04 19:23:00,88.0,68.0,30.15,SW,218,5.0,10.0,52,0.00,,,0.00,,2013-07-04 23:23:00,
2013-07-04 19:33:00,88.0,68.0,30.15,SW,218,5.0,10.0,52,0.00,,,0.00,,2013-07-04 23:33:00,
2013-07-04 19:43:00,88.0,69.0,30.15,SSW,212,5.0,10.0,53,0.00,,,0.00,,2013-07-04 23:43:00,
2013-07-04 19:52:00,88.0,69.0,30.15,SSW,212,5.0,10.0,53,0.00,,,0.00,,2013-07-04 23:52:00,
2013-07-04 20:01:00,87.0,68.0,30.15,SSW,197,3.0,10.0,54,0.00,,,0.00,,2013-07-05 00:01:00,
2013-07-04 20:12:00,87.0,69.0,30.15,South,186,3.0,6.0,55,0.00,,,0.00,,2013-07-05 00:12:00,
2013-07-04 20:22:00,87.0,69.0,30.15,WSW,242,3.0,6.0,55,0.00,,,0.00,,2013-07-05 00:22:00,
2013-07-04 20:32:00,86.0,68.0,30.15,SSW,198,3.0,5.0,56,0.00,,,0.00,,2013-07-05 00:32:00,
2013-07-04 20:43:00,86.0,68.0,30.16,West,267,4.0,10.0,56,0.00,,,0.00,,2013-07-05 00:43:00,
2013-07-04 20:52:00,86.0,68.0,30.16,West,259,3.0,9.0,56,0.00,,,0.00,,2013-07-05 00:52:00,
2013-07-04 21:01:00,86.0,68.0,30.16,West,259,3.0,9.0,56,0.00,,,0.00,,2013-07-05 01:01:00,
2013-07-04 21:11:00,86.0,69.0,30.16,SSW,200,3.0,9.0,57,0.00,,,0.00,,2013-07-05 01:11:00,
2013-07-04 21:22:00,86.0,69.0,30.16,SSW,200,3.0,9.0,57,0.00,,,0.00,,2013-07-05 01:22:00,
2013-07-04 21:32:00,86.0,69.0,30.16,SSW,200,3.0,9.0,57,0.00,,,0.00,,2013-07-05 01:32:00,
2013-07-04 21:42:00,86.0,69.0,30.16,SSW,200,3.0,9.0,57,0.00,,,0.00,,2013-07-05 01:42:00,
2013-07-04 21:52:00,85.0,69.0,30.17,SW,221,4.0,4.0,58,0.00,,,0.00,,2013-07-05 01:52:00,
2013-07-04 22:02:00,85.0,69.0,30.17,SW,221,4.0,4.0,58,0.00,,,0.00,,2013-07-05 02:02:00,
2013-07-04 22:11:00,85.0,69.0,30.17,SW,221,4.0,4.0,58,0.00,,,0.00,,2013-07-05 02:11:00,
2013-07-04 22:22:00,85.0,69.0,30.17,SW,221,4.0,4.0,58,0.00,,,0.00,,2013-07-05 02:22:00,
2013-07-04 22:32:00,85.0,70.0,30.17,South,181,3.0,4.0,60,0.00,,,0.00,,2013-07-05 02:32:00,
2013-07-04 22:43:00,85.0,70.0,30.17,South,181,3.0,4.0,60,0.00,,,0.00,,2013-07-05 02:43:00,
2013-07-04 22:53:00,85.0,70.0,30.17,South,181,3.0,4.0,60,0.00,,,0.00,,2013-07-05 02:53:00,
2013-07-04 23:02:00,85.0,70.0,30.17,South,181,3.0,4.0,60,0.00,,,0.00,,2013-07-05 03:02:00,
2013-07-04 23:11:00,85.0,70.0,30.17,South,181,3.0,4.0,60,0.00,,,0.00,,2013-07-05 03:11:00,
2013-07-04 23:42:00,83.0,69.0,30.18,West,259,5.0,6.0,63,0.00,,,0.00,,2013-07-05 03:42:00,
2013-07-04 23:43:00,82.0,69.0,30.19,SSW,192,5.0,9.0,66,0.00,,,0.00,,2013-07-05 03:43:00,
2013-07-04 23:52:00,83.0,69.0,30.18,West,259,5.0,6.0,63,0.00,,,0.00,,2013-07-05 03:52:00,